createdAt,value
2023-05-24T00:00:37.867Z,99960.22
2023-05-24T00:05:42.692Z,99942.34
2023-05-24T00:10:47.729Z,99938.94
2023-05-24T00:15:52.962Z,99950.91
2023-05-24T00:20:58.480Z,99948.09
2023-05-24T00:26:03.484Z,99924.25
2023-05-24T00:31:09.714Z,99923.91
2023-05-24T00:36:14.780Z,99933.72
2023-05-24T00:41:19.810Z,99926.28
2023-05-24T00:46:33.861Z,99931.78
2023-05-24T00:51:39.726Z,99913.59
2023-05-24T00:56:45.552Z,99916.13
2023-05-24T01:01:50.628Z,99926.50
2023-05-24T01:07:01.473Z,99901.00
2023-05-24T01:12:17.579Z,99899.19
2023-05-24T01:17:30.622Z,99887.34
2023-05-24T01:22:57.184Z,99873.13
2023-05-24T01:28:06.490Z,99865.09
2023-05-24T01:33:12.413Z,99861.34
2023-05-24T01:38:17.859Z,99851.19
2023-05-24T01:43:42.348Z,99828.28
2023-05-24T01:49:13.296Z,99829.69
2023-05-24T01:54:22.310Z,99845.34
2023-05-24T01:59:30.630Z,99890.28
2023-05-24T02:04:35.920Z,99833.03
2023-05-24T02:09:41.022Z,99825.47
2023-05-24T02:14:46.937Z,99826.81
2023-05-24T02:19:52.723Z,99825.47
2023-05-24T02:24:57.761Z,99823.28
2023-05-24T02:30:02.890Z,99814.09
2023-05-24T02:35:08.821Z,99815.44
2023-05-24T02:40:15.492Z,99798.97
2023-05-24T02:45:20.530Z,99793.00
2023-05-24T02:50:25.555Z,99779.97
2023-05-24T02:55:30.646Z,99811.88
2023-05-24T03:00:34.868Z,99773.22
2023-05-24T03:05:40.028Z,99767.00
2023-05-24T03:10:46.763Z,99760.22
2023-05-24T03:15:52.991Z,99758.00
2023-05-24T03:20:58.310Z,99763.16
2023-05-24T03:26:03.511Z,99766.13
2023-05-24T03:31:09.199Z,99734.66
2023-05-24T03:36:15.802Z,99722.47
2023-05-24T03:41:22.091Z,99722.16
2023-05-24T03:46:26.460Z,99715.88
2023-05-24T03:51:32.755Z,99720.19
2023-05-24T03:56:39.702Z,99719.88
2023-05-24T04:01:47.206Z,99701.16
2023-05-24T04:06:52.932Z,99685.34
2023-05-24T04:11:57.801Z,99690.19
2023-05-24T04:17:06.027Z,99694.28
2023-05-24T04:22:11.020Z,99684.81
2023-05-24T04:27:16.340Z,99681.22
2023-05-24T04:32:21.447Z,99667.81
2023-05-24T04:37:26.889Z,99651.50
2023-05-24T04:42:33.210Z,99640.06
2023-05-24T04:47:38.539Z,99615.69
2023-05-24T04:52:43.549Z,99619.00
2023-05-24T04:57:48.778Z,99648.72
2023-05-24T05:02:53.766Z,99627.53
2023-05-24T05:07:58.465Z,99609.56
2023-05-24T05:13:03.568Z,99591.34
2023-05-24T05:18:08.461Z,99600.44
2023-05-24T05:23:13.190Z,99595.69
2023-05-24T05:28:18.650Z,99618.72
2023-05-24T05:33:24.706Z,99590.25
2023-05-24T05:38:29.855Z,99592.25
2023-05-24T05:43:35.001Z,99593.03
2023-05-24T05:48:40.780Z,99580.59
2023-05-24T05:53:45.699Z,99605.00
2023-05-24T05:58:50.653Z,99578.91
2023-05-24T06:03:55.566Z,99579.88
2023-05-24T06:09:01.718Z,99574.91
2023-05-24T06:14:06.861Z,99556.22
2023-05-24T06:19:11.977Z,99549.44
2023-05-24T06:24:21.792Z,99539.28
2023-05-24T06:29:26.847Z,99542.00
2023-05-24T06:34:31.754Z,99533.91
2023-05-24T06:39:36.761Z,99576.53
2023-05-24T06:44:41.858Z,99554.63
2023-05-24T06:49:46.804Z,99542.63
2023-05-24T06:54:52.267Z,99536.91
2023-05-24T06:59:58.039Z,99538.59
2023-05-24T07:05:03.639Z,99522.31
2023-05-24T07:10:12.632Z,99513.25
2023-05-24T07:15:17.557Z,99520.88
2023-05-24T07:20:22.896Z,99534.66
2023-05-24T07:25:27.947Z,99542.84
2023-05-24T07:30:33.103Z,99554.56
2023-05-24T07:35:38.298Z,99550.38
2023-05-24T07:40:43.780Z,99561.06
2023-05-24T07:45:48.948Z,99556.53
2023-05-24T07:50:54.254Z,99547.13
2023-05-24T07:55:59.037Z,99571.34
2023-05-24T08:01:04.165Z,99575.22
2023-05-24T08:06:10.159Z,99557.38
2023-05-24T08:11:15.198Z,99562.91
2023-05-24T08:16:21.015Z,99559.44
2023-05-24T08:21:25.993Z,99603.66
2023-05-24T08:26:31.162Z,99547.16
2023-05-24T08:31:36.250Z,99550.44
2023-05-24T08:36:43.553Z,99541.31
2023-05-24T08:42:00.872Z,99570.31
2023-05-24T08:47:13.629Z,99545.47
2023-05-24T08:52:19.198Z,99542.28
2023-05-24T08:57:25.197Z,99542.06
2023-05-24T09:02:32.108Z,99545.41
2023-05-24T09:07:37.195Z,99558.69
2023-05-24T09:12:47.238Z,99555.47
2023-05-24T09:17:52.657Z,99559.25
2023-05-24T09:22:58.801Z,99553.06
2023-05-24T09:28:09.767Z,99572.84
2023-05-24T09:33:14.881Z,99560.97
2023-05-24T09:38:21.408Z,99568.03
2023-05-24T09:43:28.170Z,99582.13
2023-05-24T09:48:34.397Z,99630.03
2023-05-24T09:53:39.877Z,99659.53
2023-05-24T09:58:44.284Z,99701.66
2023-05-24T10:03:56.756Z,99729.53
2023-05-24T10:09:03.586Z,99748.56
2023-05-24T10:14:10.947Z,99736.88
2023-05-24T10:19:15.857Z,99732.53
2023-05-24T10:24:25.545Z,99727.19
2023-05-24T10:29:35.547Z,99731.84
2023-05-24T10:34:42.605Z,99735.00
2023-05-24T10:39:48.051Z,99735.53
2023-05-24T10:44:53.532Z,99737.50
2023-05-24T10:50:06.092Z,99724.06
2023-05-24T10:55:12.910Z,99706.91
2023-05-24T11:00:35.194Z,99716.25
2023-05-24T11:05:52.180Z,99721.41
2023-05-24T11:16:55.428Z,99725.16
2023-05-24T11:22:01.362Z,99745.56
2023-05-24T11:27:07.560Z,99723.19
2023-05-24T11:32:16.969Z,99718.28
2023-05-24T11:37:31.538Z,99718.47
2023-05-24T11:42:45.556Z,99714.16
2023-05-24T11:47:51.642Z,99720.28
2023-05-24T11:52:57.094Z,99726.13
2023-05-24T11:58:03.817Z,99733.16
2023-05-24T12:03:14.650Z,99725.00
2023-05-24T12:08:19.799Z,99737.88
2023-05-24T12:13:25.702Z,99737.25
2023-05-24T12:18:31.480Z,99747.41
2023-05-24T12:23:38.537Z,99743.56
2023-05-24T12:28:43.742Z,99735.72
2023-05-24T12:33:51.613Z,99762.28
2023-05-24T12:39:01.883Z,99752.38
2023-05-24T12:44:09.095Z,99768.97
2023-05-24T12:49:14.052Z,99773.16
2023-05-24T12:54:24.817Z,99770.16
2023-05-24T12:59:30.687Z,99767.97
2023-05-24T13:04:37.413Z,99780.81
2023-05-24T13:09:42.570Z,99773.50
2023-05-24T13:14:49.572Z,99775.06
2023-05-24T13:19:56.874Z,99781.47
2023-05-24T13:25:02.941Z,99769.94
2023-05-24T13:30:09.078Z,99769.41
2023-05-24T13:35:14.494Z,99778.56
2023-05-24T13:40:20.005Z,99787.41
2023-05-24T13:45:25.935Z,99784.41
2023-05-24T13:50:35.022Z,99778.69
2023-05-24T13:55:40.319Z,99772.75
2023-05-24T14:00:45.880Z,99768.94
2023-05-24T14:05:51.226Z,99764.06
2023-05-24T14:11:00.051Z,99761.59
2023-05-24T14:16:06.869Z,99753.69
2023-05-24T14:21:11.665Z,99753.94
2023-05-24T14:26:17.129Z,99745.22
2023-05-24T14:31:22.822Z,99750.03
2023-05-24T14:36:28.240Z,99742.53
2023-05-24T14:41:34.099Z,99752.31
2023-05-24T14:46:39.515Z,99767.69
2023-05-24T14:51:47.279Z,99776.31
2023-05-24T14:56:52.618Z,99766.97
2023-05-24T15:01:58.058Z,99778.28
2023-05-24T15:07:03.573Z,99776.41
2023-05-24T15:12:09.954Z,99795.44
2023-05-24T15:17:15.399Z,99802.19
2023-05-24T15:22:20.474Z,99786.66
2023-05-24T15:27:25.957Z,99793.66
2023-05-24T15:32:31.615Z,99787.72
2023-05-24T15:37:37.141Z,99786.66
2023-05-24T15:42:43.463Z,99782.09
2023-05-24T15:47:49.229Z,99774.31
2023-05-24T15:52:54.982Z,99777.81
2023-05-24T15:58:00.631Z,99771.03
2023-05-24T16:03:06.349Z,99801.78
2023-05-24T16:08:11.851Z,99766.06
2023-05-24T16:13:17.429Z,99775.16
2023-05-24T16:18:28.397Z,99767.84
2023-05-24T16:23:34.129Z,99767.84
2023-05-24T16:28:39.683Z,99775.31
2023-05-24T16:33:45.801Z,99762.63
2023-05-24T16:38:51.189Z,99777.81
2023-05-24T16:43:57.138Z,99775.38
2023-05-24T16:49:02.618Z,99791.50
2023-05-24T16:54:09.701Z,99756.00
2023-05-24T16:59:15.107Z,99754.63
2023-05-24T17:04:20.946Z,99749.50
2023-05-24T17:09:26.625Z,99763.72
2023-05-24T17:14:32.797Z,99765.59
2023-05-24T17:19:38.366Z,99773.06
2023-05-24T17:24:43.833Z,99781.34
2023-05-24T17:29:49.124Z,99762.00
2023-05-24T17:34:54.627Z,99770.25
2023-05-24T17:39:59.997Z,99771.06
2023-05-24T17:45:06.209Z,99771.31
2023-05-24T17:50:12.288Z,99779.63
2023-05-24T17:55:17.894Z,99793.03
2023-05-24T18:00:23.563Z,99778.44
2023-05-24T18:05:29.294Z,99772.50
2023-05-24T18:10:34.931Z,99774.06
2023-05-24T18:15:40.335Z,99784.22
2023-05-24T18:20:45.922Z,99782.78
2023-05-24T18:25:51.389Z,99786.19
2023-05-24T18:31:17.211Z,99777.69
2023-05-24T18:36:23.241Z,99775.63
2023-05-24T18:41:28.706Z,99793.94
2023-05-24T18:46:34.913Z,99796.16
2023-05-24T18:51:40.337Z,99789.03
2023-05-24T18:56:47.033Z,99805.25
2023-05-24T19:01:54.288Z,99789.88
2023-05-24T19:07:01.437Z,99777.44
2023-05-24T19:12:07.401Z,99793.16
2023-05-24T19:17:12.971Z,99792.16
2023-05-24T19:22:18.585Z,99795.78
2023-05-24T19:27:24.445Z,99787.41
2023-05-24T19:32:30.098Z,99782.28
2023-05-24T19:37:35.791Z,99777.38
2023-05-24T19:42:41.257Z,99784.47
2023-05-24T19:47:47.114Z,99782.03
2023-05-24T19:52:52.602Z,99774.44
2023-05-24T19:57:58.127Z,99780.03
2023-05-24T20:03:03.790Z,99777.63
2023-05-24T20:08:09.491Z,99770.03
2023-05-24T20:13:14.425Z,99775.84
2023-05-24T20:18:19.893Z,99775.72
2023-05-24T20:23:29.401Z,99779.91
2023-05-24T20:28:35.005Z,99791.66
2023-05-24T20:33:41.151Z,99776.03
2023-05-24T20:38:46.833Z,99799.56
2023-05-24T20:43:52.668Z,99789.91
2023-05-24T20:48:58.560Z,99780.94
2023-05-24T20:54:05.801Z,99785.94
2023-05-24T20:59:11.894Z,99796.28
2023-05-24T21:04:17.560Z,99799.66
2023-05-24T21:09:23.354Z,99796.03
2023-05-24T21:14:29.036Z,99795.72
2023-05-24T21:19:34.584Z,99807.94
2023-05-24T21:24:40.015Z,99817.66
2023-05-24T21:29:45.730Z,99801.25
2023-05-24T21:34:51.267Z,99805.66
2023-05-24T21:39:56.957Z,99812.06
2023-05-24T21:45:02.281Z,99793.78
2023-05-24T21:50:09.647Z,99799.94
2023-05-24T21:55:15.346Z,99819.25
2023-05-24T22:00:24.389Z,99851.13
2023-05-24T22:05:30.035Z,99825.81
2023-05-24T22:10:36.147Z,99856.84
2023-05-24T22:15:43.269Z,99843.25
2023-05-24T22:20:48.255Z,99852.44
2023-05-24T22:25:53.928Z,99852.44
2023-05-24T22:31:00.310Z,99851.78
2023-05-24T22:36:06.543Z,99859.94
2023-05-24T22:41:12.174Z,99873.69
2023-05-24T22:46:17.917Z,99880.44
2023-05-24T22:51:24.220Z,99887.28
2023-05-24T22:56:30.756Z,99891.16
2023-05-24T23:01:37.139Z,99906.97
2023-05-24T23:06:43.056Z,99902.59
2023-05-24T23:11:48.359Z,99902.50
2023-05-24T23:16:53.617Z,99911.25
2023-05-24T23:21:59.120Z,99875.53
2023-05-24T23:27:04.646Z,99872.63
2023-05-24T23:32:11.023Z,99874.28
2023-05-24T23:37:15.836Z,99885.06
2023-05-24T23:42:20.985Z,99893.94
2023-05-24T23:47:26.468Z,99914.91
2023-05-24T23:52:32.984Z,99916.31
2023-05-24T23:57:43.292Z,99909.06
